sensor_id;sensor_type;location;lat;lon;timestamp;pressure;altitude;pressure_sealevel;temperature;humidity
29385;BME280;16367;48.736;9.218;2023-04-21T00:01:57;-23342.03;;;5.49;100.00
29385;BME280;16367;48.736;9.218;2023-04-21T00:04:01;-23338.22;;;5.37;100.00
29385;BME280;16367;48.736;9.218;2023-04-21T00:06:04;-23340.75;;;5.45;100.00
29385;BME280;16367;48.736;9.218;2023-04-21T00:08:07;-23340.13;;;5.43;100.00
29385;BME280;16367;48.736;9.218;2023-04-21T00:10:11;-23336.63;;;5.32;100.00
29385;BME280;16367;48.736;9.218;2023-04-21T00:12:14;-23334.72;;;5.25;100.00
29385;BME280;16367;48.736;9.218;2023-04-21T00:14:17;-23338.69;;;5.38;100.00
29385;BME280;16367;48.736;9.218;2023-04-21T00:16:19;-23336.47;;;5.31;100.00
29385;BME280;16367;48.736;9.218;2023-04-21T00:18:22;-23332.97;;;5.20;100.00
29385;BME280;16367;48.736;9.218;2023-04-21T00:20:25;-23333.75;;;5.22;100.00
29385;BME280;16367;48.736;9.218;2023-04-21T00:22:28;-23332.00;;;5.17;100.00
29385;BME280;16367;48.736;9.218;2023-04-21T00:24:31;-23332.16;;;5.17;100.00
29385;BME280;16367;48.736;9.218;2023-04-21T00:26:34;-23334.56;;;5.25;100.00
29385;BME280;16367;48.736;9.218;2023-04-21T00:28:37;-23332.16;;;5.17;100.00
29385;BME280;16367;48.736;9.218;2023-04-21T00:30:40;-23329.63;;;5.09;100.00
29385;BME280;16367;48.736;9.218;2023-04-21T00:32:42;-23330.09;;;5.11;100.00
29385;BME280;16367;48.736;9.218;2023-04-21T00:34:45;-23327.38;;;5.02;100.00
29385;BME280;16367;48.736;9.218;2023-04-21T00:36:48;-23332.47;;;5.18;100.00
29385;BME280;16367;48.736;9.218;2023-04-21T00:38:51;-23328.19;;;5.05;100.00
29385;BME280;16367;48.736;9.218;2023-04-21T00:40:53;-23328.34;;;5.05;100.00
29385;BME280;16367;48.736;9.218;2023-04-21T00:42:57;-23327.38;;;5.02;100.00
29385;BME280;16367;48.736;9.218;2023-04-21T00:45:00;-22203.38;;;5.03;100.00
29385;BME280;16367;48.736;9.218;2023-04-21T00:47:03;-19061.72;;;5.05;100.00
29385;BME280;16367;48.736;9.218;2023-04-21T00:49:06;-17574.88;;;5.01;100.00
29385;BME280;16367;48.736;9.218;2023-04-21T00:51:09;-12780.59;;;4.96;100.00
29385;BME280;16367;48.736;9.218;2023-04-21T00:53:13;-5732.50;;;5.00;100.00
29385;BME280;16367;48.736;9.218;2023-04-21T00:55:16;43.75;;;4.93;100.00
29385;BME280;16367;48.736;9.218;2023-04-21T00:57:19;8082.97;;;5.06;100.00
29385;BME280;16367;48.736;9.218;2023-04-21T00:59:23;9691.31;;;5.00;100.00
29385;BME280;16367;48.736;9.218;2023-04-21T01:01:27;11623.13;;;4.98;100.00
29385;BME280;16367;48.736;9.218;2023-04-21T01:03:30;14199.78;;;4.94;100.00
29385;BME280;16367;48.736;9.218;2023-04-21T01:05:33;15167.78;;;4.97;100.00
29385;BME280;16367;48.736;9.218;2023-04-21T01:07:36;20324.25;;;4.83;100.00
29385;BME280;16367;48.736;9.218;2023-04-21T01:09:39;28400.16;;;4.80;100.00
29385;BME280;16367;48.736;9.218;2023-04-21T01:11:59;31308.53;;;4.74;100.00
29385;BME280;16367;48.736;9.218;2023-04-21T01:14:02;36493.31;;;4.79;100.00
29385;BME280;16367;48.736;9.218;2023-04-21T01:16:07;41351.25;;;4.71;100.00
29385;BME280;16367;48.736;9.218;2023-04-21T01:18:10;44922.06;;;4.71;100.00
29385;BME280;16367;48.736;9.218;2023-04-21T01:20:13;47520.81;;;4.71;100.00
29385;BME280;16367;48.736;9.218;2023-04-21T01:22:18;48497.50;;;4.73;100.00
29385;BME280;16367;48.736;9.218;2023-04-21T01:24:20;47838.94;;;4.63;100.00
29385;BME280;16367;48.736;9.218;2023-04-21T01:26:23;49781.50;;;4.54;100.00
29385;BME280;16367;48.736;9.218;2023-04-21T01:28:26;52378.56;;;4.50;100.00
29385;BME280;16367;48.736;9.218;2023-04-21T01:30:28;54011.28;;;4.57;100.00
29385;BME280;16367;48.736;9.218;2023-04-21T01:32:31;53361.94;;;4.58;100.00
29385;BME280;16367;48.736;9.218;2023-04-21T01:34:35;51735.94;;;4.59;100.00
29385;BME280;16367;48.736;9.218;2023-04-21T01:36:38;50104.34;;;4.52;100.00
29385;BME280;16367;48.736;9.218;2023-04-21T01:38:42;52062.56;;;4.60;100.00
29385;BME280;16367;48.736;9.218;2023-04-21T01:40:46;49781.06;;;4.54;100.00
29385;BME280;16367;48.736;9.218;2023-04-21T01:42:49;49131.91;;;4.55;100.00
29385;BME280;16367;48.736;9.218;2023-04-21T01:44:52;46853.81;;;4.50;100.00
29385;BME280;16367;48.736;9.218;2023-04-21T01:46:55;44258.38;;;4.53;100.00
29385;BME280;16367;48.736;9.218;2023-04-21T01:48:58;42961.03;;;4.54;100.00
29385;BME280;16367;48.736;9.218;2023-04-21T01:51:01;43601.47;;;4.43;100.00
29385;BME280;16367;48.736;9.218;2023-04-21T01:53:03;47815.09;;;4.35;100.00
29385;BME280;16367;48.736;9.218;2023-04-21T01:55:09;53668.34;;;4.38;100.00
29385;BME280;16367;48.736;9.218;2023-04-21T01:57:11;55937.03;;;4.29;100.00
29385;BME280;16367;48.736;9.218;2023-04-21T01:59:14;58210.47;;;4.24;100.00
29385;BME280;16367;48.736;9.218;2023-04-21T02:01:17;59191.50;;;4.28;100.00
29385;BME280;16367;48.736;9.218;2023-04-21T02:03:20;59521.91;;;4.32;100.00
29385;BME280;16367;48.736;9.218;2023-04-21T02:05:23;59513.53;;;4.24;100.00
29385;BME280;16367;48.736;9.218;2023-04-21T02:07:26;60163.88;;;4.23;100.00
29385;BME280;16367;48.736;9.218;2023-04-21T02:09:28;60815.94;;;4.24;100.00
29385;BME280;16367;48.736;9.218;2023-04-21T02:11:32;63423.69;;;4.24;100.00
29385;BME280;16367;48.736;9.218;2023-04-21T02:13:35;63425.34;;;4.26;100.00
29385;BME280;16367;48.736;9.218;2023-04-21T02:15:38;64402.38;;;4.25;100.00
29385;BME280;16367;48.736;9.218;2023-04-21T02:17:40;64721.69;;;4.19;100.00
29385;BME280;16367;48.736;9.218;2023-04-21T02:19:45;63416.47;;;4.18;100.00
29385;BME280;16367;48.736;9.218;2023-04-21T02:21:48;62440.84;;;4.20;100.00
29385;BME280;16367;48.736;9.218;2023-04-21T02:23:51;61132.63;;;4.15;100.00
29385;BME280;16367;48.736;9.218;2023-04-21T02:25:54;60148.03;;;4.08;100.00
29385;BME280;16367;48.736;9.218;2023-04-21T02:27:57;60149.63;;;4.10;100.00
29385;BME280;16367;48.736;9.218;2023-04-21T02:30:00;60154.91;;;4.15;100.00
29385;BME280;16367;48.736;9.218;2023-04-21T02:32:04;64067.88;;;4.17;100.00
29385;BME280;16367;48.736;9.218;2023-04-21T02:34:10;63721.78;;;3.99;100.00
29385;BME280;16367;48.736;9.218;2023-04-21T02:36:13;65029.56;;;4.03;100.00
29385;BME280;16367;48.736;9.218;2023-04-21T02:38:16;65345.31;;;3.94;100.00
29385;BME280;16367;48.736;9.218;2023-04-21T02:40:19;67958.31;;;3.97;100.00
29385;BME280;16367;48.736;9.218;2023-04-21T02:42:21;71549.13;;;3.98;100.00
29385;BME280;16367;48.736;9.218;2023-04-21T02:44:25;73838.03;;;4.00;100.00
29385;BME280;16367;48.736;9.218;2023-04-21T02:46:28;76122.47;;;3.97;100.00
29385;BME280;16367;48.736;9.218;2023-04-21T02:48:31;78086.41;;;3.99;100.00
29385;BME280;16367;48.736;9.218;2023-04-21T02:50:34;79401.09;;;4.03;100.00
29385;BME280;16367;48.736;9.218;2023-04-21T02:52:37;80047.91;;;3.98;100.00
29385;BME280;16367;48.736;9.218;2023-04-21T02:54:39;79395.59;;;3.99;100.00
29385;BME280;16367;48.736;9.218;2023-04-21T02:56:42;79073.91;;;4.03;100.00
29385;BME280;16367;48.736;9.218;2023-04-21T02:58:45;78413.50;;;3.99;100.00
29385;BME280;16367;48.736;9.218;2023-04-21T03:00:49;78078.25;;;3.93;100.00
29385;BME280;16367;48.736;9.218;2023-04-21T03:02:52;78066.72;;;3.84;100.00
29385;BME280;16367;48.736;9.218;2023-04-21T03:04:55;77410.09;;;3.82;100.00
29385;BME280;16367;48.736;9.218;2023-04-21T03:06:57;78071.47;;;3.88;100.00
29385;BME280;16367;48.736;9.218;2023-04-21T03:09:00;80046.53;;;3.97;100.00
29385;BME280;16367;48.736;9.218;2023-04-21T03:11:03;81357.00;;;3.98;100.00
29385;BME280;16367;48.736;9.218;2023-04-21T03:13:06;81017.03;;;3.89;100.00
29385;BME280;16367;48.736;9.218;2023-04-21T03:15:08;81335.84;;;3.83;100.00
29385;BME280;16367;48.736;9.218;2023-04-21T03:17:13;83299.78;;;3.83;100.00
29385;BME280;16367;48.736;9.218;2023-04-21T03:19:15;86262.47;;;3.93;100.00
29385;BME280;16367;48.736;9.218;2023-04-21T03:21:18;86577.44;;;3.84;100.00
29385;BME280;16367;48.736;9.218;2023-04-21T03:23:21;87563.63;;;3.86;100.00
29385;BME280;16367;48.736;9.218;2023-04-21T03:25:24;87883.06;;;3.81;100.00
29385;BME280;16367;48.736;9.218;2023-04-21T03:27:28;88865.72;;;3.80;100.00
29385;BME280;16367;48.736;9.218;2023-04-21T03:29:30;89530.00;;;3.86;100.00
29385;BME280;16367;48.736;9.218;2023-04-21T03:31:33;89853.28;;;3.83;100.00
29385;BME280;16367;48.736;9.218;2023-04-21T03:33:37;89864.16;;;3.90;100.00
29385;BME280;16367;48.736;9.218;2023-04-21T03:35:40;89522.25;;;3.81;100.00
29385;BME280;16367;48.736;9.218;2023-04-21T03:37:43;90184.34;;;3.85;100.00
29385;BME280;16367;48.736;9.218;2023-04-21T03:39:46;90190.59;;;3.89;100.00
29385;BME280;16367;48.736;9.218;2023-04-21T03:41:49;88877.28;;;3.88;100.00
29385;BME280;16367;48.736;9.218;2023-04-21T03:43:51;87895.22;;;3.89;100.00
29385;BME280;16367;48.736;9.218;2023-04-21T03:45:54;87242.69;;;3.91;100.00
29385;BME280;16367;48.736;9.218;2023-04-21T03:47:57;86263.97;;;3.94;100.00
29385;BME280;16367;48.736;9.218;2023-04-21T03:50:02;85950.44;;;4.03;100.00
29385;BME280;16367;48.736;9.218;2023-04-21T03:52:05;87605.34;;;4.14;100.00
29385;BME280;16367;48.736;9.218;2023-04-21T03:54:07;88258.97;;;4.12;100.00
29385;BME280;16367;48.736;9.218;2023-04-21T03:56:10;88909.56;;;4.09;100.00
29385;BME280;16367;48.736;9.218;2023-04-21T03:58:13;90230.38;;;4.14;100.00
29385;BME280;16367;48.736;9.218;2023-04-21T04:00:16;90885.91;;;4.14;100.00
29385;BME280;16367;48.736;9.218;2023-04-21T04:02:19;90554.63;;;4.12;100.00
29385;BME280;16367;48.736;9.218;2023-04-21T04:04:21;90893.78;;;4.19;100.00
29385;BME280;16367;48.736;9.218;2023-04-21T04:06:26;91237.78;;;4.29;100.00
29385;BME280;16367;48.736;9.218;2023-04-21T04:08:29;90237.41;;;4.19;100.00
29385;BME280;16367;48.736;9.218;2023-04-21T04:10:32;90232.72;;;4.16;100.00
29385;BME280;16367;48.736;9.218;2023-04-21T04:12:34;90239.72;;;4.20;100.00
29385;BME280;16367;48.736;9.218;2023-04-21T04:14:37;89571.81;;;4.13;100.00
29385;BME280;16367;48.736;9.218;2023-04-21T04:16:40;90582.81;;;4.30;100.00
29385;BME280;16367;48.736;9.218;2023-04-21T04:18:43;91251.97;;;4.38;100.00
29385;BME280;16367;48.736;9.218;2023-04-21T04:20:46;89599.69;;;4.31;100.00
29385;BME280;16367;48.736;9.218;2023-04-21T04:22:50;88268.88;;;4.19;100.00
29385;BME280;16367;48.736;9.218;2023-04-21T04:24:52;88606.88;;;4.25;100.00
29385;BME280;16367;48.736;9.218;2023-04-21T04:26:55;88267.34;;;4.18;100.00
29385;BME280;16367;48.736;9.218;2023-04-21T04:28:58;88595.34;;;4.18;100.00
29385;BME280;16367;48.736;9.218;2023-04-21T04:31:02;88271.94;;;4.21;100.00
29385;BME280;16367;48.736;9.218;2023-04-21T04:33:06;88296.34;;;4.37;100.00
29385;BME280;16367;48.736;9.218;2023-04-21T04:35:14;86648.69;;;4.32;100.00
29385;BME280;16367;48.736;9.218;2023-04-21T04:37:17;85966.06;;;4.14;100.00
29385;BME280;16367;48.736;9.218;2023-04-21T04:39:23;86301.34;;;4.19;100.00
29385;BME280;16367;48.736;9.218;2023-04-21T04:41:28;86311.03;;;4.25;100.00
29385;BME280;16367;48.736;9.218;2023-04-21T04:43:33;86630.69;;;4.20;100.00
29385;BME280;16367;48.736;9.218;2023-04-21T04:45:37;85647.91;;;4.20;100.00
29385;BME280;16367;48.736;9.218;2023-04-21T04:47:39;85334.16;;;4.30;100.00
29385;BME280;16367;48.736;9.218;2023-04-21T04:49:42;85026.97;;;4.44;100.00
29385;BME280;16367;48.736;9.218;2023-04-21T04:51:45;81056.38;;;4.17;100.00
29385;BME280;16367;48.736;9.218;2023-04-21T04:53:48;82054.38;;;4.28;100.00
29385;BME280;16367;48.736;9.218;2023-04-21T04:55:52;80734.63;;;4.21;100.00
29385;BME280;16367;48.736;9.218;2023-04-21T04:57:54;80063.19;;;4.09;100.00
29385;BME280;16367;48.736;9.218;2023-04-21T04:59:57;82367.66;;;4.18;100.00
29385;BME280;16367;48.736;9.218;2023-04-21T05:02:00;82044.44;;;4.21;100.00
29385;BME280;16367;48.736;9.218;2023-04-21T05:04:03;82384.81;;;4.30;100.00
29385;BME280;16367;48.736;9.218;2023-04-21T05:06:06;81373.94;;;4.10;100.00
29385;BME280;16367;48.736;9.218;2023-04-21T05:08:09;82681.56;;;4.08;100.00
29385;BME280;16367;48.736;9.218;2023-04-21T05:10:12;84982.78;;;4.14;100.00
29385;BME280;16367;48.736;9.218;2023-04-21T05:12:16;85339.34;;;4.33;100.00
29385;BME280;16367;48.736;9.218;2023-04-21T05:14:19;82363.38;;;4.15;100.00
29385;BME280;16367;48.736;9.218;2023-04-21T05:16:22;81378.16;;;4.13;100.00
29385;BME280;16367;48.736;9.218;2023-04-21T05:18:25;81055.00;;;4.16;100.00
29385;BME280;16367;48.736;9.218;2023-04-21T05:20:28;81426.88;;;4.47;100.00
29385;BME280;16367;48.736;9.218;2023-04-21T05:22:30;77811.38;;;4.37;100.00
29385;BME280;16367;48.736;9.218;2023-04-21T05:24:33;73553.59;;;4.33;100.00
29385;BME280;16367;48.736;9.218;2023-04-21T05:26:36;71605.88;;;4.43;100.00
29385;BME280;16367;48.736;9.218;2023-04-21T05:28:40;68322.75;;;4.29;100.00
29385;BME280;16367;48.736;9.218;2023-04-21T05:30:43;67335.31;;;4.22;100.00
29385;BME280;16367;48.736;9.218;2023-04-21T05:32:45;68309.03;;;4.18;100.00
29385;BME280;16367;48.736;9.218;2023-04-21T05:34:48;68341.25;;;4.45;100.00
29385;BME280;16367;48.736;9.218;2023-04-21T05:36:51;66707.81;;;4.44;100.00
29385;BME280;16367;48.736;9.218;2023-04-21T05:38:54;64111.66;;;4.57;100.00
29385;BME280;16367;48.736;9.218;2023-04-21T05:40:56;57907.34;;;4.46;100.00
29385;BME280;16367;48.736;9.218;2023-04-21T05:42:59;57892.06;;;4.31;100.00
29385;BME280;16367;48.736;9.218;2023-04-21T05:45:04;56251.56;;;4.18;100.00
29385;BME280;16367;48.736;9.218;2023-04-21T05:47:07;58224.31;;;4.37;100.00
29385;BME280;16367;48.736;9.218;2023-04-21T05:49:10;54631.75;;;4.25;100.00
29385;BME280;16367;48.736;9.218;2023-04-21T05:51:13;52019.22;;;4.13;100.00
29385;BME280;16367;48.736;9.218;2023-04-21T05:53:16;56264.47;;;4.31;100.00
29385;BME280;16367;48.736;9.218;2023-04-21T05:55:19;58899.00;;;4.60;100.00
29385;BME280;16367;48.736;9.218;2023-04-21T05:57:22;56617.88;;;4.59;100.00
29385;BME280;16367;48.736;9.218;2023-04-21T05:59:25;49786.38;;;4.60;100.00
29385;BME280;16367;48.736;9.218;2023-04-21T06:01:29;46871.38;;;4.72;100.00
29385;BME280;16367;48.736;9.218;2023-04-21T06:03:32;41343.44;;;4.60;100.00
29385;BME280;16367;48.736;9.218;2023-04-21T06:05:35;42974.91;;;4.72;100.00
29385;BME280;16367;48.736;9.218;2023-04-21T06:07:37;43282.03;;;4.49;100.00
29385;BME280;16367;48.736;9.218;2023-04-21T06:09:40;48168.19;;;4.68;100.00
29385;BME280;16367;48.736;9.218;2023-04-21T06:11:43;51760.22;;;4.85;100.00
29385;BME280;16367;48.736;9.218;2023-04-21T06:13:45;48826.03;;;4.77;100.00
29385;BME280;16367;48.736;9.218;2023-04-21T06:15:48;45907.47;;;4.85;100.00
29385;BME280;16367;48.736;9.218;2023-04-21T06:17:53;39430.38;;;5.06;100.00
29385;BME280;16367;48.736;9.218;2023-04-21T06:19:56;30369.84;;;5.32;100.00
29385;BME280;16367;48.736;9.218;2023-04-21T06:21:59;16476.34;;;5.54;100.00
29385;BME280;16367;48.736;9.218;2023-04-21T06:24:02;7763.88;;;5.21;100.00
29385;BME280;16367;48.736;9.218;2023-04-21T06:26:05;-595.91;;;5.42;100.00
29385;BME280;16367;48.736;9.218;2023-04-21T06:28:08;-13686.34;;;5.47;100.00
29385;BME280;16367;48.736;9.218;2023-04-21T06:30:12;-23355.88;;;5.92;100.00
29385;BME280;16367;48.736;9.218;2023-04-21T06:32:14;-23376.22;;;6.57;100.00
29385;BME280;16367;48.736;9.218;2023-04-21T06:34:18;-23398.78;;;7.28;100.00
29385;BME280;16367;48.736;9.218;2023-04-21T06:36:22;-23393.88;;;7.13;100.00
29385;BME280;16367;48.736;9.218;2023-04-21T06:38:24;-23364.78;;;6.21;100.00
29385;BME280;16367;48.736;9.218;2023-04-21T06:40:27;-23367.97;;;6.31;100.00
29385;BME280;16367;48.736;9.218;2023-04-21T06:42:30;-23382.44;;;6.76;100.00
29385;BME280;16367;48.736;9.218;2023-04-21T06:44:32;-23378.78;;;6.65;100.00
29385;BME280;16367;48.736;9.218;2023-04-21T06:46:35;-23377.03;;;6.59;100.00
29385;BME280;16367;48.736;9.218;2023-04-21T06:48:38;-23384.03;;;6.82;100.00
29385;BME280;16367;48.736;9.218;2023-04-21T06:50:42;-23385.13;;;6.85;100.00
29385;BME280;16367;48.736;9.218;2023-04-21T06:52:46;-23379.25;;;6.66;100.00
29385;BME280;16367;48.736;9.218;2023-04-21T06:54:49;-23376.56;;;6.58;100.00
29385;BME280;16367;48.736;9.218;2023-04-21T06:56:52;-23385.13;;;6.85;100.00
29385;BME280;16367;48.736;9.218;2023-04-21T06:58:55;-23379.41;;;6.67;100.00
29385;BME280;16367;48.736;9.218;2023-04-21T07:00:57;-23385.94;;;6.88;100.00
29385;BME280;16367;48.736;9.218;2023-04-21T07:03:00;-23382.75;;;6.78;100.00
29385;BME280;16367;48.736;9.218;2023-04-21T07:05:04;-23391.66;;;7.06;100.00
29385;BME280;16367;48.736;9.218;2023-04-21T07:07:08;-23389.91;;;7.00;100.00
29385;BME280;16367;48.736;9.218;2023-04-21T07:09:11;-23389.75;;;7.00;100.00
29385;BME280;16367;48.736;9.218;2023-04-21T07:11:13;-23385.13;;;6.85;100.00
29385;BME280;16367;48.736;9.218;2023-04-21T07:13:16;-23395.63;;;7.18;100.00
29385;BME280;16367;48.736;9.218;2023-04-21T07:15:19;-23410.56;;;7.66;100.00
29385;BME280;16367;48.736;9.218;2023-04-21T07:17:22;-23416.44;;;7.84;100.00
29385;BME280;16367;48.736;9.218;2023-04-21T07:19:24;-23427.84;;;8.20;100.00
29385;BME280;16367;48.736;9.218;2023-04-21T07:21:28;-23450.72;;;8.93;100.00
29385;BME280;16367;48.736;9.218;2023-04-21T07:23:37;-23433.91;;;8.40;100.00
29385;BME280;16367;48.736;9.218;2023-04-21T07:25:40;-23431.03;;;8.31;100.00
29385;BME280;16367;48.736;9.218;2023-04-21T07:27:43;-23456.44;;;9.11;100.00
29385;BME280;16367;48.736;9.218;2023-04-21T07:29:46;-23444.84;;;8.74;100.00
29385;BME280;16367;48.736;9.218;2023-04-21T07:31:48;-23441.69;;;8.64;100.00
29385;BME280;16367;48.736;9.218;2023-04-21T07:33:52;-23434.84;;;8.43;100.00
29385;BME280;16367;48.736;9.218;2023-04-21T07:35:54;-23448.03;;;8.84;100.00
29385;BME280;16367;48.736;9.218;2023-04-21T07:37:57;-23442.47;;;8.67;100.00
29385;BME280;16367;48.736;9.218;2023-04-21T07:40:01;-23476.56;;;9.75;100.00
29385;BME280;16367;48.736;9.218;2023-04-21T07:42:04;-23488.16;;;10.12;100.00
29385;BME280;16367;48.736;9.218;2023-04-21T07:44:08;-23492.25;;;10.25;100.00
29385;BME280;16367;48.736;9.218;2023-04-21T07:46:11;-23480.06;;;9.86;100.00
29385;BME280;16367;48.736;9.218;2023-04-21T07:48:14;-23465.63;;;9.40;100.00
29385;BME280;16367;48.736;9.218;2023-04-21T07:50:16;-23459.28;;;9.20;100.00
29385;BME280;16367;48.736;9.218;2023-04-21T07:52:19;-23478.00;;;9.80;100.00
29385;BME280;16367;48.736;9.218;2023-04-21T07:54:22;-23477.69;;;9.78;100.00
29385;BME280;16367;48.736;9.218;2023-04-21T07:56:26;-23488.63;;;10.13;100.00
29385;BME280;16367;48.736;9.218;2023-04-21T07:58:29;-23481.47;;;9.91;100.00
29385;BME280;16367;48.736;9.218;2023-04-21T08:00:32;-23485.13;;;10.02;100.00
29385;BME280;16367;48.736;9.218;2023-04-21T08:02:35;-23535.97;;;11.64;98.81
29385;BME280;16367;48.736;9.218;2023-04-21T08:04:37;-23565.41;;;12.57;88.04
29385;BME280;16367;48.736;9.218;2023-04-21T08:06:40;-23679.38;;;16.21;69.41
29385;BME280;16367;48.736;9.218;2023-04-21T08:08:43;-23616.28;;;14.19;72.93
29385;BME280;16367;48.736;9.218;2023-04-21T08:10:46;-23647.06;;;15.18;68.28
29385;BME280;16367;48.736;9.218;2023-04-21T08:12:50;-23627.50;;;14.55;71.34
29385;BME280;16367;48.736;9.218;2023-04-21T08:14:53;-23657.94;;;15.52;64.44
29385;BME280;16367;48.736;9.218;2023-04-21T08:16:56;-23659.22;;;15.56;65.52
29385;BME280;16367;48.736;9.218;2023-04-21T08:18:59;-23661.41;;;15.63;65.33
29385;BME280;16367;48.736;9.218;2023-04-21T08:21:02;-23585.31;;;13.21;74.00
29385;BME280;16367;48.736;9.218;2023-04-21T08:23:04;-23644.69;;;15.10;67.04
29385;BME280;16367;48.736;9.218;2023-04-21T08:25:07;-23631.59;;;14.68;68.31
29385;BME280;16367;48.736;9.218;2023-04-21T08:27:10;-23673.41;;;16.02;64.98
29385;BME280;16367;48.736;9.218;2023-04-21T08:29:14;-23661.88;;;15.65;64.43
29385;BME280;16367;48.736;9.218;2023-04-21T08:31:17;-23643.75;;;15.07;68.27
29385;BME280;16367;48.736;9.218;2023-04-21T08:33:20;-23677.97;;;16.16;62.84
29385;BME280;16367;48.736;9.218;2023-04-21T08:35:23;-23664.41;;;15.73;63.47
29385;BME280;16367;48.736;9.218;2023-04-21T08:37:25;-23656.06;;;15.46;65.97
29385;BME280;16367;48.736;9.218;2023-04-21T08:39:29;-23680.31;;;16.24;61.88
29385;BME280;16367;48.736;9.218;2023-04-21T08:41:32;-23648.63;;;15.23;64.92
29385;BME280;16367;48.736;9.218;2023-04-21T08:43:35;-23626.88;;;14.53;67.84
29385;BME280;16367;48.736;9.218;2023-04-21T08:45:42;-23638.88;;;14.91;68.14
29385;BME280;16367;48.736;9.218;2023-04-21T08:47:45;-23640.91;;;14.98;66.53
29385;BME280;16367;48.736;9.218;2023-04-21T08:49:50;-23641.69;;;15.01;69.12
29385;BME280;16367;48.736;9.218;2023-04-21T08:51:54;-23677.03;;;16.13;61.71
29385;BME280;16367;48.736;9.218;2023-04-21T08:53:57;-23637.28;;;14.86;70.12
29385;BME280;16367;48.736;9.218;2023-04-21T08:56:00;-23662.34;;;15.66;65.44
29385;BME280;16367;48.736;9.218;2023-04-21T08:58:12;-23674.34;;;16.05;64.01
29385;BME280;16367;48.736;9.218;2023-04-21T09:00:15;-23695.16;;;16.71;59.77
29385;BME280;16367;48.736;9.218;2023-04-21T09:02:20;-23670.25;;;15.92;60.84
29385;BME280;16367;48.736;9.218;2023-04-21T09:04:23;-23691.69;;;16.60;60.57
29385;BME280;16367;48.736;9.218;2023-04-21T09:06:39;-23717.19;;;17.42;58.08
29385;BME280;16367;48.736;9.218;2023-04-21T09:08:52;-23671.50;;;15.96;64.02
29385;BME280;16367;48.736;9.218;2023-04-21T09:10:57;-23605.22;;;13.84;68.27
29385;BME280;16367;48.736;9.218;2023-04-21T09:13:05;-23648.00;;;15.21;69.88
29385;BME280;16367;48.736;9.218;2023-04-21T09:15:09;-23694.50;;;16.69;62.01
29385;BME280;16367;48.736;9.218;2023-04-21T09:17:14;-23665.69;;;15.77;67.08
29385;BME280;16367;48.736;9.218;2023-04-21T09:19:18;-23698.28;;;16.81;57.69
29385;BME280;16367;48.736;9.218;2023-04-21T09:21:26;-23707.09;;;17.09;60.41
29385;BME280;16367;48.736;9.218;2023-04-21T09:23:38;-23667.09;;;15.82;59.45
29385;BME280;16367;48.736;9.218;2023-04-21T09:25:42;-23700.34;;;16.88;63.10
29385;BME280;16367;48.736;9.218;2023-04-21T09:27:45;-23742.81;;;18.24;53.02
29385;BME280;16367;48.736;9.218;2023-04-21T09:29:48;-23649.75;;;15.26;57.59
29385;BME280;16367;48.736;9.218;2023-04-21T09:31:51;-23635.53;;;14.81;62.76
29385;BME280;16367;48.736;9.218;2023-04-21T09:33:55;-23601.91;;;13.74;68.84
29385;BME280;16367;48.736;9.218;2023-04-21T09:36:04;-23648.78;;;15.23;64.70
29385;BME280;16367;48.736;9.218;2023-04-21T09:38:09;-23732.13;;;17.90;57.42
29385;BME280;16367;48.736;9.218;2023-04-21T09:40:13;-23710.09;;;17.19;57.99
29385;BME280;16367;48.736;9.218;2023-04-21T09:42:19;-23698.75;;;16.83;60.98
29385;BME280;16367;48.736;9.218;2023-04-21T09:44:26;-23745.19;;;18.31;54.26
29385;BME280;16367;48.736;9.218;2023-04-21T09:46:37;-23709.78;;;17.18;56.87
29385;BME280;16367;48.736;9.218;2023-04-21T09:48:42;-23686.00;;;16.42;59.79
29385;BME280;16367;48.736;9.218;2023-04-21T09:50:45;-23763.09;;;18.89;56.93
29385;BME280;16367;48.736;9.218;2023-04-21T09:52:54;-23723.31;;;17.61;57.53
29385;BME280;16367;48.736;9.218;2023-04-21T09:55:00;-23793.25;;;19.85;52.09
29385;BME280;16367;48.736;9.218;2023-04-21T09:57:05;-23686.00;;;16.42;60.81
29385;BME280;16367;48.736;9.218;2023-04-21T09:59:19;-23736.06;;;18.02;57.84
29385;BME280;16367;48.736;9.218;2023-04-21T10:01:28;-23758.06;;;18.73;55.08
29385;BME280;16367;48.736;9.218;2023-04-21T10:03:34;-23778.81;;;19.39;53.78
29385;BME280;16367;48.736;9.218;2023-04-21T10:05:40;-23749.91;;;18.46;52.81
29385;BME280;16367;48.736;9.218;2023-04-21T10:07:44;-23781.81;;;19.49;52.51
29385;BME280;16367;48.736;9.218;2023-04-21T10:09:51;-23762.78;;;18.88;52.83
29385;BME280;16367;48.736;9.218;2023-04-21T10:11:55;-23767.66;;;19.03;53.86
29385;BME280;16367;48.736;9.218;2023-04-21T10:13:58;-23836.41;;;21.24;49.66
29385;BME280;16367;48.736;9.218;2023-04-21T10:16:01;-23737.94;;;18.08;55.63
29385;BME280;16367;48.736;9.218;2023-04-21T10:18:12;-23759.50;;;18.77;54.78
29385;BME280;16367;48.736;9.218;2023-04-21T10:20:16;-23792.63;;;19.83;53.31
29385;BME280;16367;48.736;9.218;2023-04-21T10:22:25;-23747.69;;;18.39;54.61
29385;BME280;16367;48.736;9.218;2023-04-21T10:24:29;-23728.66;;;17.78;56.98
29385;BME280;16367;48.736;9.218;2023-04-21T10:26:34;-23688.53;;;16.50;61.09
29385;BME280;16367;48.736;9.218;2023-04-21T10:28:52;-23719.88;;;17.50;57.24
29385;BME280;16367;48.736;9.218;2023-04-21T10:31:16;-23653.22;;;15.37;63.73
29385;BME280;16367;48.736;9.218;2023-04-21T10:33:22;-23656.06;;;15.46;65.60
29385;BME280;16367;48.736;9.218;2023-04-21T10:35:57;-23667.88;;;15.84;65.10
29385;BME280;16367;48.736;9.218;2023-04-21T10:38:01;-23678.44;;;16.18;64.04
29385;BME280;16367;48.736;9.218;2023-04-21T10:40:04;-23668.97;;;15.88;65.09
29385;BME280;16367;48.736;9.218;2023-04-21T10:42:35;-23649.75;;;15.26;67.05
29385;BME280;16367;48.736;9.218;2023-04-21T10:44:40;-23678.44;;;16.18;66.51
29385;BME280;16367;48.736;9.218;2023-04-21T10:46:44;-23658.41;;;15.54;68.91
29385;BME280;16367;48.736;9.218;2023-04-21T10:48:51;-23679.22;;;16.20;68.42
29385;BME280;16367;48.736;9.218;2023-04-21T10:50:54;-23677.50;;;16.15;66.07
29385;BME280;16367;48.736;9.218;2023-04-21T10:53:00;-23688.03;;;16.49;65.58